createdAt,value
2023-04-15T00:03:24.191Z,99755.50
2023-04-15T00:08:17.455Z,99754.46
2023-04-15T00:13:14.951Z,99750.83
2023-04-15T00:18:09.286Z,99755.14
2023-04-15T00:23:04.230Z,99754.27
2023-04-15T00:27:57.130Z,99749.77
2023-04-15T00:32:50.002Z,99747.30
2023-04-15T00:37:46.038Z,99743.98
2023-04-15T00:42:39.473Z,99746.05
2023-04-15T00:47:33.149Z,99747.08
2023-04-15T00:52:26.196Z,99744.48
2023-04-15T00:57:19.263Z,99744.13
2023-04-15T01:02:12.123Z,99745.16
2023-04-15T01:07:04.937Z,99738.73
2023-04-15T01:11:57.889Z,99739.27
2023-04-15T01:16:50.985Z,99734.40
2023-04-15T01:21:43.756Z,99736.29
2023-04-15T01:26:37.320Z,99733.87
2023-04-15T01:31:32.862Z,99732.30
2023-04-15T01:36:25.578Z,99730.20
2023-04-15T01:41:23.898Z,99733.48
2023-04-15T01:46:17.832Z,99731.38
2023-04-15T01:51:10.581Z,99731.37
2023-04-15T01:56:03.503Z,99733.95
2023-04-15T02:00:56.755Z,99734.81
2023-04-15T02:05:51.234Z,99734.10
2023-04-15T02:10:44.026Z,99730.63
2023-04-15T02:15:36.776Z,99728.35
2023-04-15T02:20:30.820Z,99723.86
2023-04-15T02:25:24.239Z,99726.27
2023-04-15T02:30:17.201Z,99727.66
2023-04-15T02:35:10.121Z,99728.34
2023-04-15T02:40:02.832Z,99726.77
2023-04-15T02:44:55.718Z,99724.86
2023-04-15T02:49:49.397Z,99725.88
2023-04-15T02:54:42.072Z,99725.52
2023-04-15T02:59:34.748Z,99724.48
2023-04-15T03:04:30.264Z,99725.50
2023-04-15T03:09:23.236Z,99726.36
2023-04-15T03:14:16.892Z,99726.89
2023-04-15T03:19:11.417Z,99729.48
2023-04-15T03:24:05.053Z,99728.95
2023-04-15T03:28:59.400Z,99728.95
2023-04-15T03:33:52.704Z,99730.69
2023-04-15T03:38:45.869Z,99732.25
2023-04-15T03:43:38.575Z,99732.58
2023-04-15T03:48:31.286Z,99731.89
2023-04-15T03:53:24.228Z,99735.88
2023-04-15T03:58:16.850Z,99737.92
2023-04-15T04:03:09.734Z,99743.28
2023-04-15T04:08:02.687Z,99747.25
2023-04-15T04:12:55.433Z,99744.82
2023-04-15T04:17:48.273Z,99749.47
2023-04-15T04:22:41.837Z,99746.17
2023-04-15T04:27:34.541Z,99747.54
2023-04-15T04:32:27.462Z,99750.65
2023-04-15T04:37:20.239Z,99750.80
2023-04-15T04:42:12.956Z,99747.34
2023-04-15T04:47:06.725Z,99749.92
2023-04-15T04:52:00.041Z,99749.58
2023-04-15T04:56:52.813Z,99747.16
2023-04-15T05:01:45.758Z,99747.00
2023-04-15T05:06:39.596Z,99747.52
2023-04-15T05:11:32.306Z,99754.09
2023-04-15T05:16:25.998Z,99750.30
2023-04-15T05:21:18.732Z,99751.52
2023-04-15T05:26:11.666Z,99750.83
2023-04-15T05:31:04.593Z,99748.75
2023-04-15T05:35:57.305Z,99750.98
2023-04-15T05:40:50.058Z,99755.30
2023-04-15T05:45:42.797Z,99759.45
2023-04-15T05:50:35.974Z,99762.04
2023-04-15T05:55:28.657Z,99763.94
2023-04-15T06:00:21.413Z,99762.90
2023-04-15T06:05:14.650Z,99761.20
2023-04-15T06:10:08.066Z,99762.77
2023-04-15T06:15:01.015Z,99767.27
2023-04-15T06:19:55.942Z,99770.56
2023-04-15T06:24:49.178Z,99774.19
2023-04-15T06:29:42.211Z,99778.85
2023-04-15T06:34:34.955Z,99775.55
2023-04-15T06:39:27.928Z,99778.16
2023-04-15T06:44:20.779Z,99781.64
2023-04-15T06:49:13.477Z,99783.89
2023-04-15T06:54:06.578Z,99783.36
2023-04-15T06:58:59.496Z,99787.86
2023-04-15T07:03:52.613Z,99791.00
2023-04-15T07:08:45.295Z,99796.04
2023-04-15T07:13:38.506Z,99798.33
2023-04-15T07:18:31.198Z,99802.14
2023-04-15T07:23:23.948Z,99802.32
2023-04-15T07:28:16.838Z,99806.29
2023-04-15T07:33:10.362Z,99802.30
2023-04-15T07:38:03.487Z,99805.41
2023-04-15T07:42:58.428Z,99804.02
2023-04-15T07:47:51.469Z,99800.92
2023-04-15T07:52:44.859Z,99800.57
2023-04-15T07:57:38.130Z,99802.13
2023-04-15T08:02:31.895Z,99797.98
2023-04-15T08:07:25.412Z,99799.44
2023-04-15T08:12:18.736Z,99805.04
2023-04-15T08:17:11.658Z,99795.06
2023-04-15T08:22:04.463Z,99800.14
2023-04-15T08:26:57.888Z,99800.55
2023-04-15T08:31:50.734Z,99802.12
2023-04-15T08:36:44.016Z,99804.73
2023-04-15T08:41:47.813Z,99805.11
2023-04-15T08:46:40.818Z,99811.16
2023-04-15T08:51:34.260Z,99810.67
2023-04-15T08:56:27.948Z,99811.39
2023-04-15T09:01:20.793Z,99808.83
2023-04-15T09:06:13.696Z,99812.83
2023-04-15T09:11:06.652Z,99813.73
2023-04-15T09:15:59.527Z,99813.20
2023-04-15T09:20:54.608Z,99814.73
2023-04-15T09:25:47.429Z,99816.28
2023-04-15T09:30:40.171Z,99814.02
2023-04-15T09:35:32.908Z,99817.34
2023-04-15T09:40:36.038Z,99818.27
2023-04-15T09:45:29.810Z,99819.49
2023-04-15T09:50:22.690Z,99821.23
2023-04-15T09:55:16.169Z,99823.85
2023-04-15T10:00:11.511Z,99827.33
2023-04-15T10:05:04.687Z,99830.46
2023-04-15T10:09:58.058Z,99830.62
2023-04-15T10:14:57.883Z,99834.95
2023-04-15T10:19:50.851Z,99834.09
2023-04-15T10:24:45.466Z,99829.92
2023-04-15T10:29:38.891Z,99833.04
2023-04-15T10:34:32.431Z,99830.45
2023-04-15T10:39:34.511Z,99829.94
2023-04-15T10:44:27.466Z,99831.67
2023-04-15T10:49:26.280Z,99832.70
2023-04-15T10:54:32.315Z,99830.29
2023-04-15T10:59:25.020Z,99835.65
2023-04-15T11:04:37.892Z,99835.48
2023-04-15T11:09:34.725Z,99831.33
2023-04-15T11:14:27.623Z,99831.15
2023-04-15T11:19:20.777Z,99830.80
2023-04-15T11:24:13.532Z,99835.81
2023-04-15T11:29:06.373Z,99840.15
2023-04-15T11:34:00.256Z,99850.55
2023-04-15T11:38:52.999Z,99854.38
2023-04-15T11:43:45.784Z,99853.61
2023-04-15T11:48:38.517Z,99856.89
2023-04-15T11:53:43.552Z,99862.68
2023-04-15T11:58:37.486Z,99868.77
2023-04-15T12:03:38.298Z,99871.86
2023-04-15T12:08:49.557Z,99876.09
2023-04-15T12:13:45.915Z,99882.81
2023-04-15T12:18:41.465Z,99887.54
2023-04-15T12:23:37.990Z,99892.02
2023-04-15T12:28:32.185Z,99904.13
2023-04-15T12:33:24.885Z,99906.10
2023-04-15T12:38:17.635Z,99901.48
2023-04-15T12:43:10.325Z,99905.88
2023-04-15T12:48:03.118Z,99906.48
2023-04-15T12:52:55.802Z,99909.94
2023-04-15T12:57:48.878Z,99912.39
2023-04-15T13:02:41.657Z,99914.64
2023-04-15T13:07:34.587Z,99916.15
2023-04-15T13:12:27.941Z,99923.58
2023-04-15T13:17:22.232Z,99932.80
2023-04-15T13:22:15.427Z,99935.65
2023-04-15T13:27:08.492Z,99940.36
2023-04-15T13:32:01.663Z,99939.56
2023-04-15T13:36:54.544Z,99950.60
2023-04-15T13:41:48.632Z,99948.58
2023-04-15T13:46:42.116Z,99957.09
2023-04-15T13:51:36.475Z,99951.11
2023-04-15T13:56:30.024Z,99953.51
2023-04-15T14:01:29.067Z,99947.23
2023-04-15T14:06:22.248Z,99939.64
2023-04-15T14:11:14.995Z,99949.29
2023-04-15T14:16:08.147Z,99956.09
2023-04-15T14:21:01.136Z,99953.54
2023-04-15T14:25:54.604Z,99955.30
2023-04-15T14:30:47.596Z,99957.07
2023-04-15T14:35:40.407Z,99956.19
2023-04-15T14:40:34.565Z,99956.68
2023-04-15T14:45:28.315Z,99961.38
2023-04-15T14:50:21.277Z,99971.33
2023-04-15T14:55:14.365Z,99973.99
2023-04-15T15:00:08.533Z,99979.30
2023-04-15T15:05:02.659Z,99997.75
2023-04-15T15:09:55.816Z,100000.02
2023-04-15T15:14:48.517Z,100005.30
2023-04-15T15:19:41.305Z,100016.96
2023-04-15T15:24:33.998Z,100017.69
2023-04-15T15:29:26.764Z,100009.71
2023-04-15T15:34:19.502Z,100008.20
2023-04-15T15:39:12.430Z,100010.15
2023-04-15T15:44:05.146Z,100006.16
2023-04-15T15:48:58.447Z,100003.09
2023-04-15T15:53:51.308Z,100003.99
2023-04-15T15:58:45.274Z,100000.20
2023-04-15T16:03:38.198Z,100003.70
2023-04-15T16:08:31.002Z,100017.64
2023-04-15T16:13:23.753Z,100029.52
2023-04-15T16:18:16.494Z,100039.66
2023-04-15T16:23:18.364Z,100048.87
2023-04-15T16:28:25.109Z,100049.17
2023-04-15T16:33:19.308Z,100055.23
2023-04-15T16:38:12.003Z,100062.13
2023-04-15T16:43:07.349Z,100070.61
2023-04-15T16:48:00.625Z,100079.41
2023-04-15T16:52:53.522Z,100085.79
2023-04-15T16:58:03.283Z,100095.64
2023-04-15T17:02:56.864Z,100106.36
2023-04-15T17:07:49.794Z,100114.45
2023-04-15T17:12:42.569Z,100120.61
2023-04-15T17:17:35.351Z,100121.07
2023-04-15T17:22:29.116Z,100122.70
2023-04-15T17:27:22.104Z,100122.27
2023-04-15T17:32:14.804Z,100126.67
2023-04-15T17:37:07.563Z,100128.13
2023-04-15T17:42:00.283Z,100133.23
2023-04-15T17:46:53.005Z,100142.52
2023-04-15T17:51:48.278Z,100153.34
2023-04-15T17:56:41.014Z,100164.32
2023-04-15T18:01:33.773Z,100172.23
2023-04-15T18:06:27.255Z,100187.04
2023-04-15T18:11:20.048Z,100200.83
2023-04-15T18:16:12.866Z,100209.45
2023-04-15T18:21:05.816Z,100216.73
2023-04-15T18:25:59.639Z,100224.56
2023-04-15T18:30:52.408Z,100237.25
2023-04-15T18:35:45.196Z,100239.35
2023-04-15T18:40:37.942Z,100249.52
2023-04-15T18:45:31.312Z,100249.86
2023-04-15T18:50:25.023Z,100254.70
2023-04-15T18:55:19.198Z,100255.00
2023-04-15T19:00:13.352Z,100259.14
2023-04-15T19:05:07.045Z,100261.86
2023-04-15T19:09:59.763Z,100262.86
2023-04-15T19:14:52.498Z,100265.06
2023-04-15T19:19:45.255Z,100264.33
2023-04-15T19:24:38.336Z,100273.60
2023-04-15T19:29:31.360Z,100282.05
2023-04-15T19:34:25.276Z,100286.52
2023-04-15T19:39:19.767Z,100288.55
2023-04-15T19:44:13.440Z,100294.41
2023-04-15T19:49:06.682Z,100299.41
2023-04-15T19:54:00.001Z,100302.67
2023-04-15T19:58:53.171Z,100308.19
2023-04-15T20:03:46.517Z,100316.95
2023-04-15T20:08:39.380Z,100317.94
2023-04-15T20:13:33.107Z,100315.49
2023-04-15T20:18:25.795Z,100314.98
2023-04-15T20:23:18.495Z,100317.02
2023-04-15T20:28:11.618Z,100316.14
2023-04-15T20:33:05.633Z,100315.91
2023-04-15T20:37:58.286Z,100314.47
2023-04-15T20:42:50.940Z,100313.40
2023-04-15T20:47:43.807Z,100317.00
2023-04-15T20:52:36.699Z,100316.30
2023-04-15T20:57:30.428Z,100317.96
2023-04-15T21:02:26.763Z,100315.86
2023-04-15T21:07:19.639Z,100318.42
2023-04-15T21:12:12.389Z,100324.60
2023-04-15T21:17:10.056Z,100328.21
2023-04-15T21:22:04.315Z,100330.95
2023-04-15T21:26:57.283Z,100336.08
2023-04-15T21:31:50.098Z,100333.92
2023-04-15T21:36:42.820Z,100331.77
2023-04-15T21:41:36.769Z,100333.08
2023-04-15T21:46:33.297Z,100332.16
2023-04-15T21:51:28.272Z,100333.86
2023-04-15T21:56:23.236Z,100339.52
2023-04-15T22:01:17.020Z,100343.98
2023-04-15T22:06:09.786Z,100349.14
2023-04-15T22:11:02.463Z,100349.33
2023-04-15T22:15:55.186Z,100357.62
2023-04-15T22:20:47.854Z,100363.66
2023-04-15T22:25:40.599Z,100365.56
2023-04-15T22:30:33.515Z,100376.95
2023-04-15T22:35:26.229Z,100382.27
2023-04-15T22:40:18.960Z,100390.11
2023-04-15T22:45:11.700Z,100388.33
2023-04-15T22:50:04.575Z,100388.60
2023-04-15T22:54:57.266Z,100394.77
2023-04-15T22:59:50.018Z,100392.16
2023-04-15T23:04:42.850Z,100394.59
2023-04-15T23:09:35.672Z,100390.79
2023-04-15T23:14:29.109Z,100393.73
2023-04-15T23:19:21.891Z,100392.30
2023-04-15T23:24:14.579Z,100389.53
2023-04-15T23:29:08.652Z,100388.63
2023-04-15T23:34:01.488Z,100392.60
2023-04-15T23:38:54.330Z,100392.61
2023-04-15T23:43:47.285Z,100400.36
2023-04-15T23:48:40.752Z,100403.02
2023-04-15T23:53:33.456Z,100405.71
2023-04-15T23:58:26.198Z,100412.38
